Main page
METAR-TAF:

METAR-TAF

Airports :

Biarritz Pays Basque Airport

Biarritz, France

latitude: 43-28N, longitude: 001-32W, elevation: 75 m

Current weather observation

The report was made 29 minutes ago, at 23:00 UTC
Wind 3 kt from the South/Southwest
Temperature 12°C
Humidity 82%
Pressure 1025 hPa
Visibility 10 km or more
no clouds below 1500 m and no cumulonimbus

METAR: LFBZ 282300Z AUTO 20003KT CAVOK 12/09 Q1025 NOSIG

Time: 00:29 (23:29 UTC)

Forecast

The report was made 6 hours and 29 minutes ago, at 17:00 UTC
Forecast valid from 28 at 18 UTC to 29 at 18 UTC
Wind 5 kt from the West/Southwest
Visibility 10 km or more
Broken clouds at a height of 4000 ft
Becoming
from 28 at 19 UTC to 28 at 21 UTC
Wind 5 kt from the South
Becoming
from 29 at 02 UTC to 29 at 04 UTC
Visibility 10 km or more
no clouds below 1500 m and no cumulonimbus
Becoming
from 29 at 09 UTC to 29 at 11 UTC
Wind 7 kt from the East

TAF: LFBZ 281700Z 2818/2918 25005KT 9999 BKN040 BECMG 2819/2821 19005KT BECMG 2902/2904 CAVOK BECMG 2909/2911 09007KT

Weather observations and forecasts of more than 4000 airports (METAR and TAF reports).

The available stations are represented by yellow and red dots on the map.

Hover mouse over dot to see the name of the station.

Then click to see weather observations and forecasts.

To change the map : click on the green buttons with a black cross to zoom in, on the green button with a dash to zoom out, or on the green arrows for adjacent maps.


METAR-TAF: